createdAt,value
2023-11-29T00:01:22.284Z,98826.72
2023-11-29T00:04:24.800Z,98838.16
2023-11-29T00:07:27.150Z,98848.38
2023-11-29T00:10:29.604Z,98856.75
2023-11-29T00:13:32.194Z,98857.00
2023-11-29T00:16:34.759Z,98861.94
2023-11-29T00:19:37.098Z,98868.34
2023-11-29T00:22:42.136Z,98884.53
2023-11-29T00:25:52.055Z,98893.81
2023-11-29T00:28:54.465Z,98900.56
2023-11-29T00:31:58.963Z,98901.28
2023-11-29T00:35:01.695Z,98887.69
2023-11-29T00:38:11.125Z,98886.56
2023-11-29T00:41:13.631Z,98893.13
2023-11-29T00:44:16.544Z,98917.16
2023-11-29T00:47:20.062Z,98926.47
2023-11-29T00:50:25.655Z,98938.34
2023-11-29T00:53:33.463Z,98945.97
2023-11-29T00:56:40.360Z,98957.88
2023-11-29T00:59:48.784Z,98960.03
2023-11-29T01:02:51.312Z,98965.94
2023-11-29T01:05:53.815Z,98983.06
2023-11-29T01:08:58.408Z,98987.91
2023-11-29T01:12:01.253Z,98976.59
2023-11-29T01:15:04.041Z,98981.69
2023-11-29T01:18:09.792Z,98972.19
2023-11-29T01:21:15.100Z,98980.69
2023-11-29T01:24:19.568Z,98990.41
2023-11-29T01:27:26.843Z,98988.38
2023-11-29T01:30:34.045Z,98979.78
2023-11-29T01:33:36.596Z,98977.06
2023-11-29T01:36:45.917Z,98977.69
2023-11-29T01:39:50.080Z,98978.63
2023-11-29T01:42:55.982Z,98976.34
2023-11-29T01:45:58.439Z,98991.38
2023-11-29T01:49:03.954Z,99007.34
2023-11-29T01:52:07.046Z,99003.00
2023-11-29T01:55:11.207Z,99010.53
2023-11-29T01:58:13.650Z,99020.00
2023-11-29T02:01:16.378Z,99012.91
2023-11-29T02:04:18.820Z,99016.00
2023-11-29T02:07:21.302Z,99014.97
2023-11-29T02:10:26.781Z,99032.69
2023-11-29T02:13:31.450Z,99026.41
2023-11-29T02:16:35.473Z,99034.78
2023-11-29T02:19:40.384Z,99044.91
2023-11-29T02:22:49.550Z,99066.97
2023-11-29T02:25:55.865Z,99071.09
2023-11-29T02:28:59.298Z,99078.22
2023-11-29T02:32:03.319Z,99078.22
2023-11-29T02:35:06.780Z,99081.94
2023-11-29T02:38:10.948Z,99081.50
2023-11-29T02:41:15.694Z,99090.63
2023-11-29T02:44:20.876Z,99083.66
2023-11-29T02:47:23.344Z,99097.91
2023-11-29T02:50:28.395Z,99102.16
2023-11-29T02:53:30.891Z,99123.81
2023-11-29T02:56:33.349Z,99131.59
2023-11-29T02:59:38.063Z,99132.03
2023-11-29T03:02:40.654Z,99127.28
2023-11-29T03:05:43.210Z,99118.59
2023-11-29T03:08:45.716Z,99124.53
2023-11-29T03:11:48.146Z,99130.66
2023-11-29T03:14:50.651Z,99137.56
2023-11-29T03:17:55.401Z,99138.47
2023-11-29T03:20:57.801Z,99151.69
2023-11-29T03:24:01.647Z,99151.78
2023-11-29T03:27:06.584Z,99145.91
2023-11-29T03:30:16.186Z,99150.22
2023-11-29T03:33:20.961Z,99154.66
2023-11-29T03:36:23.365Z,99142.09
2023-11-29T03:39:27.157Z,99157.25
2023-11-29T03:42:31.864Z,99166.06
2023-11-29T03:45:37.027Z,99173.72
2023-11-29T03:48:40.765Z,99161.59
2023-11-29T03:51:47.110Z,99186.09
2023-11-29T03:54:52.448Z,99201.78
2023-11-29T03:57:55.309Z,99190.56
2023-11-29T04:00:57.705Z,99217.22
2023-11-29T04:04:00.368Z,99217.88
2023-11-29T04:07:06.005Z,99227.09
2023-11-29T04:10:10.352Z,99240.59
2023-11-29T04:13:16.566Z,99249.16
2023-11-29T04:16:23.126Z,99254.63
2023-11-29T04:19:25.651Z,99265.78
2023-11-29T04:22:28.169Z,99259.53
2023-11-29T04:25:32.922Z,99264.81
2023-11-29T04:28:35.279Z,99262.31
2023-11-29T04:31:38.208Z,99258.88
2023-11-29T04:34:47.509Z,99269.63
2023-11-29T04:37:51.455Z,99272.69
2023-11-29T04:40:56.614Z,99281.50
2023-11-29T04:44:00.003Z,99278.69
2023-11-29T04:47:02.937Z,99290.88
2023-11-29T04:50:11.003Z,99275.75
2023-11-29T04:53:14.192Z,99290.97
2023-11-29T04:56:16.686Z,99273.66
2023-11-29T04:59:20.609Z,99276.31
2023-11-29T05:02:24.532Z,99274.53
2023-11-29T05:05:29.114Z,99284.63
2023-11-29T05:08:33.381Z,99288.09
2023-11-29T05:11:35.815Z,99294.81
2023-11-29T05:14:38.280Z,99295.16
2023-11-29T05:17:43.456Z,99316.22
2023-11-29T05:20:46.093Z,99318.91
2023-11-29T05:23:50.090Z,99328.97
2023-11-29T05:26:55.713Z,99339.25
2023-11-29T05:30:00.332Z,99340.84
2023-11-29T05:33:09.535Z,99350.25
2023-11-29T05:36:12.439Z,99350.16
2023-11-29T05:39:15.071Z,99351.03
2023-11-29T05:42:21.994Z,99345.41
2023-11-29T05:45:24.529Z,99346.44
2023-11-29T05:48:30.821Z,99348.38
2023-11-29T05:51:33.339Z,99356.19
2023-11-29T05:54:38.925Z,99367.78
2023-11-29T05:57:46.010Z,99378.13
2023-11-29T06:00:49.102Z,99391.94
2023-11-29T06:03:51.588Z,99394.59
2023-11-29T06:06:54.073Z,99397.06
2023-11-29T06:10:00.307Z,99388.66
2023-11-29T06:13:05.025Z,99396.19
2023-11-29T06:16:07.921Z,99401.50
2023-11-29T06:19:12.923Z,99408.47
2023-11-29T06:22:16.962Z,99411.88
2023-11-29T06:25:20.628Z,99420.47
2023-11-29T06:28:26.377Z,99425.84
2023-11-29T06:31:28.956Z,99434.41
2023-11-29T06:34:32.667Z,99443.63
2023-11-29T06:37:35.605Z,99457.22
2023-11-29T06:40:44.325Z,99454.59
2023-11-29T06:43:55.073Z,99444.06
2023-11-29T06:47:00.255Z,99451.06
2023-11-29T06:50:05.313Z,99451.06
2023-11-29T06:53:08.409Z,99466.88
2023-11-29T06:56:13.315Z,99451.94
2023-11-29T06:59:18.099Z,99459.66
2023-11-29T07:02:23.786Z,99476.75
2023-11-29T07:05:26.228Z,99497.81
2023-11-29T07:08:28.787Z,99502.97
2023-11-29T07:11:33.480Z,99526.13
2023-11-29T07:14:36.640Z,99536.81
2023-11-29T07:17:39.727Z,99546.34
2023-11-29T07:20:46.226Z,99533.44
2023-11-29T07:23:51.694Z,99550.81
2023-11-29T07:26:56.544Z,99545.56
2023-11-29T07:30:01.935Z,99543.94
2023-11-29T07:33:07.302Z,99552.22
2023-11-29T07:36:14.515Z,99561.94
2023-11-29T07:39:17.313Z,99579.47
2023-11-29T07:42:19.762Z,99586.84
2023-11-29T07:45:25.819Z,99582.53
2023-11-29T07:48:28.539Z,99593.38
2023-11-29T07:51:33.744Z,99581.47
2023-11-29T07:57:38.870Z,99595.50
2023-11-29T08:00:41.386Z,99594.88
2023-11-29T08:03:43.979Z,99599.03
2023-11-29T08:06:47.790Z,99611.13
2023-11-29T08:09:52.557Z,99596.97
2023-11-29T08:12:59.919Z,99608.53
2023-11-29T08:16:03.685Z,99612.34
2023-11-29T08:19:07.291Z,99623.91
2023-11-29T08:22:09.756Z,99624.31
2023-11-29T08:25:14.868Z,99631.13
2023-11-29T08:28:19.564Z,99637.69
2023-11-29T08:31:25.295Z,99635.47
2023-11-29T08:34:33.022Z,99637.69
2023-11-29T08:37:37.219Z,99638.66
2023-11-29T08:40:42.477Z,99631.13
2023-11-29T08:43:44.918Z,99633.34
2023-11-29T08:46:49.922Z,99649.56
2023-11-29T08:49:52.346Z,99641.16
2023-11-29T08:52:57.364Z,99639.78
2023-11-29T08:55:59.783Z,99656.25
2023-11-29T08:59:02.556Z,99657.97
2023-11-29T09:02:07.226Z,99662.31
2023-11-29T09:05:09.693Z,99670.78
2023-11-29T09:08:15.528Z,99664.41
2023-11-29T09:11:20.309Z,99682.19
2023-11-29T09:14:23.339Z,99686.41
2023-11-29T09:17:26.473Z,99689.22
2023-11-29T09:20:29.683Z,99699.00
2023-11-29T09:23:35.179Z,99696.63
2023-11-29T09:26:43.291Z,99700.63
2023-11-29T09:29:45.883Z,99700.53
2023-11-29T09:32:48.617Z,99704.53
2023-11-29T09:35:51.126Z,99696.63
2023-11-29T09:38:55.782Z,99704.91
2023-11-29T09:42:01.727Z,99707.84
2023-11-29T09:45:09.181Z,99709.78
2023-11-29T09:48:11.856Z,99704.81
2023-11-29T09:51:18.665Z,99710.00
2023-11-29T09:54:25.960Z,99714.59
2023-11-29T09:57:30.740Z,99715.09
2023-11-29T10:00:37.815Z,99710.03
2023-11-29T10:03:43.779Z,99711.63
2023-11-29T10:06:48.795Z,99711.53
2023-11-29T10:09:54.927Z,99709.84
2023-11-29T10:13:00.601Z,99711.81
2023-11-29T10:16:05.704Z,99704.13
2023-11-29T10:19:11.109Z,99711.91
2023-11-29T10:22:17.343Z,99705.88
2023-11-29T10:25:26.054Z,99704.53
2023-11-29T10:28:28.511Z,99711.72
2023-11-29T10:31:30.969Z,99719.22
2023-11-29T10:34:34.365Z,99723.19
2023-11-29T10:37:43.819Z,99706.34
2023-11-29T10:40:49.681Z,99714.38
2023-11-29T10:43:52.388Z,99707.38
2023-11-29T10:47:18.471Z,99709.13
2023-11-29T10:50:22.959Z,99719.34
2023-11-29T10:53:25.617Z,99718.84
2023-11-29T10:56:33.512Z,99713.75
2023-11-29T10:59:36.588Z,99718.34
2023-11-29T11:02:39.259Z,99720.50
2023-11-29T11:05:41.890Z,99719.28
2023-11-29T11:08:45.575Z,99727.88
2023-11-29T11:11:48.308Z,99727.38
2023-11-29T11:14:54.897Z,99728.22
2023-11-29T11:18:03.788Z,99727.94
2023-11-29T11:21:09.978Z,99725.63
2023-11-29T11:24:12.481Z,99733.34
2023-11-29T11:27:18.268Z,99732.28
2023-11-29T11:30:20.873Z,99740.25
2023-11-29T11:33:23.628Z,99735.44
2023-11-29T11:36:27.996Z,99728.09
2023-11-29T11:39:32.967Z,99742.22
2023-11-29T11:42:35.631Z,99739.03
2023-11-29T11:45:38.444Z,99738.25
2023-11-29T11:48:41.130Z,99742.34
2023-11-29T11:51:44.321Z,99737.25
2023-11-29T11:54:51.239Z,99743.94
2023-11-29T11:57:53.898Z,99739.69
2023-11-29T12:00:56.362Z,99725.41
2023-11-29T12:04:01.620Z,99731.00
2023-11-29T12:07:06.198Z,99730.50
2023-11-29T12:10:15.179Z,99732.19
2023-11-29T12:13:22.514Z,99748.81
2023-11-29T12:16:27.814Z,99756.41
2023-11-29T12:19:32.977Z,99756.41
2023-11-29T12:22:35.481Z,99765.88
2023-11-29T12:25:43.781Z,99768.97
2023-11-29T12:28:49.434Z,99767.94
2023-11-29T12:31:53.566Z,99762.38
2023-11-29T12:35:02.121Z,99773.91
2023-11-29T12:38:04.609Z,99765.72
2023-11-29T12:41:11.434Z,99753.91
2023-11-29T12:44:16.359Z,99758.09
2023-11-29T12:47:23.280Z,99754.56
2023-11-29T12:50:26.274Z,99751.91
2023-11-29T12:53:29.179Z,99761.47
2023-11-29T12:56:31.773Z,99761.81
2023-11-29T12:59:36.482Z,99770.06
2023-11-29T13:02:41.745Z,99759.06
2023-11-29T13:05:44.328Z,99771.88
2023-11-29T13:08:46.750Z,99761.06
2023-11-29T13:11:51.707Z,99762.28
2023-11-29T13:14:54.202Z,99765.66
2023-11-29T13:17:58.058Z,99760.50
2023-11-29T13:21:01.105Z,99768.44
2023-11-29T13:24:08.094Z,99774.75
2023-11-29T13:27:15.256Z,99781.69
2023-11-29T13:30:18.659Z,99791.03
2023-11-29T13:33:23.950Z,99785.22
2023-11-29T13:36:28.692Z,99797.13
2023-11-29T13:39:32.475Z,99801.63
2023-11-29T13:42:35.052Z,99821.13
2023-11-29T13:45:37.721Z,99823.25
2023-11-29T13:48:45.811Z,99820.69
2023-11-29T13:51:58.056Z,99821.75
2023-11-29T13:55:13.549Z,99821.13
2023-11-29T13:58:15.926Z,99824.28
2023-11-29T14:01:18.400Z,99826.78
2023-11-29T14:04:21.282Z,99838.72
2023-11-29T14:07:23.905Z,99844.91
2023-11-29T14:11:05.203Z,99845.75
2023-11-29T14:14:10.669Z,99852.28
2023-11-29T14:17:13.587Z,99852.38
2023-11-29T14:20:17.521Z,99844.00
2023-11-29T14:23:23.959Z,99850.09
2023-11-29T14:26:28.926Z,99852.09
2023-11-29T14:29:33.673Z,99849.47
2023-11-29T14:32:36.355Z,99867.63
2023-11-29T14:35:39.113Z,99871.22
2023-11-29T14:38:41.975Z,99876.25
2023-11-29T14:41:47.431Z,99890.47
2023-11-29T14:44:51.283Z,99886.19
2023-11-29T14:47:55.451Z,99901.03
2023-11-29T14:51:04.039Z,99910.06
2023-11-29T14:54:06.532Z,99908.19
2023-11-29T14:57:11.270Z,99909.19
2023-11-29T15:00:19.194Z,99914.19
2023-11-29T15:03:25.252Z,99918.03
2023-11-29T15:06:28.987Z,99913.06
2023-11-29T15:09:34.149Z,99917.59
2023-11-29T15:12:40.358Z,99925.91
2023-11-29T15:15:48.321Z,99925.06
2023-11-29T15:18:53.359Z,99925.56
2023-11-29T15:21:58.597Z,99927.66
2023-11-29T15:25:08.695Z,99936.28
2023-11-29T15:28:17.435Z,99935.75
2023-11-29T15:31:24.556Z,99933.47
2023-11-29T15:34:32.440Z,99938.78
2023-11-29T15:37:37.683Z,99947.72
2023-11-29T15:40:46.461Z,99949.31
2023-11-29T15:43:49.767Z,99948.06
2023-11-29T15:46:52.332Z,99948.56
2023-11-29T15:49:58.984Z,99956.13
2023-11-29T15:53:01.797Z,99954.28
2023-11-29T15:56:07.060Z,99947.03
2023-11-29T15:59:11.987Z,99950.00
2023-11-29T16:02:15.102Z,99955.66
2023-11-29T16:05:18.133Z,99955.56
2023-11-29T16:08:20.550Z,99949.03
2023-11-29T16:11:25.935Z,99941.44
2023-11-29T16:14:28.368Z,99958.88
2023-11-29T16:17:30.731Z,99954.91
2023-11-29T16:20:37.978Z,99968.91
2023-11-29T16:23:40.739Z,99958.28
2023-11-29T16:26:43.665Z,99971.88
2023-11-29T16:29:48.442Z,99982.41
2023-11-29T16:32:56.604Z,99985.88
2023-11-29T16:36:02.804Z,99984.00
2023-11-29T16:39:05.835Z,99989.00
2023-11-29T16:42:11.267Z,99987.03
2023-11-29T16:45:16.152Z,100000.56
2023-11-29T16:48:18.973Z,99991.69
2023-11-29T16:51:23.842Z,99996.16
2023-11-29T16:54:28.909Z,99995.81
2023-11-29T16:57:31.466Z,100002.81
2023-11-29T17:00:34.112Z,100003.00
2023-11-29T17:03:36.688Z,100005.75
2023-11-29T17:06:42.596Z,100010.19
2023-11-29T17:09:45.114Z,100009.28
2023-11-29T17:12:47.487Z,100013.84
2023-11-29T17:15:50.097Z,100020.56
2023-11-29T17:18:52.656Z,100022.97
2023-11-29T17:21:57.815Z,100018.19
2023-11-29T17:25:00.918Z,100025.81
2023-11-29T17:28:05.000Z,100019.63
2023-11-29T17:31:14.438Z,100029.59
2023-11-29T17:34:17.900Z,100028.53
2023-11-29T17:37:21.303Z,100023.19
2023-11-29T17:40:23.865Z,100028.44
2023-11-29T17:43:26.954Z,100029.63
2023-11-29T17:46:29.634Z,100033.69
2023-11-29T17:49:32.795Z,100037.72
2023-11-29T17:52:37.293Z,100032.41
2023-11-29T17:55:40.459Z,100030.75
2023-11-29T17:58:44.883Z,100023.53
2023-11-29T18:01:47.807Z,100042.28
2023-11-29T18:04:52.241Z,100048.31
2023-11-29T18:07:55.508Z,100036.38
2023-11-29T18:11:02.186Z,100043.97
2023-11-29T18:14:04.756Z,100044.66
2023-11-29T18:17:07.283Z,100046.16
2023-11-29T18:20:10.157Z,100055.13
2023-11-29T18:23:13.518Z,100051.69
2023-11-29T18:26:18.540Z,100043.75
2023-11-29T18:29:21.259Z,100054.81
2023-11-29T18:32:24.282Z,100056.53
2023-11-29T18:35:29.599Z,100043.34
2023-11-29T18:38:32.371Z,100053.84
2023-11-29T18:41:35.400Z,100059.84
2023-11-29T18:44:38.863Z,100057.78
2023-11-29T18:47:42.408Z,100057.06
2023-11-29T18:50:45.210Z,100058.97
2023-11-29T18:53:48.428Z,100056.78
2023-11-29T18:56:51.151Z,100056.19
2023-11-29T18:59:53.804Z,100056.66
2023-11-29T19:02:59.351Z,100066.31
2023-11-29T19:06:04.639Z,100061.63
2023-11-29T19:09:07.190Z,100068.19
2023-11-29T19:12:09.671Z,100074.72
2023-11-29T19:15:12.145Z,100075.97
2023-11-29T19:18:18.192Z,100072.78
2023-11-29T19:21:25.480Z,100084.94
2023-11-29T19:24:28.020Z,100088.94
2023-11-29T19:27:36.002Z,100086.66
2023-11-29T19:30:38.505Z,100099.56
2023-11-29T19:33:41.115Z,100097.59
2023-11-29T19:36:44.202Z,100101.63
2023-11-29T19:39:46.732Z,100097.41
2023-11-29T19:42:49.151Z,100092.94
2023-11-29T19:45:53.808Z,100091.75
2023-11-29T19:48:56.474Z,100100.69
2023-11-29T19:51:58.924Z,100100.56
2023-11-29T19:55:04.187Z,100095.22
2023-11-29T19:58:13.723Z,100098.34
2023-11-29T20:01:22.898Z,100105.59
2023-11-29T20:04:25.396Z,100109.03
2023-11-29T20:07:28.003Z,100114.75
2023-11-29T20:10:33.306Z,100112.19
2023-11-29T20:13:35.718Z,100121.19
2023-11-29T20:16:40.713Z,100123.47
2023-11-29T20:19:47.937Z,100125.66
2023-11-29T20:22:52.720Z,100115.22
2023-11-29T20:25:58.102Z,100118.09
2023-11-29T20:29:03.131Z,100108.97
2023-11-29T20:32:06.052Z,100113.78
2023-11-29T20:35:25.357Z,100117.00
2023-11-29T20:38:33.834Z,100108.44
2023-11-29T20:41:36.291Z,100105.75
2023-11-29T20:44:40.977Z,100100.31
2023-11-29T20:47:45.926Z,100108.31
2023-11-29T20:50:48.425Z,100107.22
2023-11-29T20:53:53.590Z,100112.22
2023-11-29T20:56:56.117Z,100110.88
2023-11-29T20:59:58.599Z,100110.09
2023-11-29T21:03:06.137Z,100105.75
2023-11-29T21:06:08.941Z,100110.09
2023-11-29T21:09:11.433Z,100111.00
2023-11-29T21:12:18.640Z,100122.13
2023-11-29T21:15:21.138Z,100119.91
2023-11-29T21:18:23.732Z,100120.81
2023-11-29T21:21:26.360Z,100122.47
2023-11-29T21:24:28.803Z,100113.91
2023-11-29T21:27:35.858Z,100120.50
2023-11-29T21:30:38.285Z,100126.19
2023-11-29T21:33:41.252Z,100132.41
2023-11-29T21:36:45.944Z,100122.84
2023-11-29T21:39:48.380Z,100123.28
2023-11-29T21:42:51.001Z,100133.44
2023-11-29T21:45:55.960Z,100120.63
2023-11-29T21:49:01.236Z,100120.38
2023-11-29T21:52:03.862Z,100117.81
2023-11-29T21:55:09.627Z,100121.06
2023-11-29T21:58:15.540Z,100114.38
2023-11-29T22:01:22.914Z,100116.16
2023-11-29T22:04:26.157Z,100116.81
2023-11-29T22:07:31.082Z,100113.47
2023-11-29T22:10:34.583Z,100117.50
2023-11-29T22:13:37.352Z,100120.72
2023-11-29T22:16:40.465Z,100109.59
2023-11-29T22:19:45.898Z,100108.03
2023-11-29T22:22:48.452Z,100102.31
2023-11-29T22:25:50.971Z,100101.69
2023-11-29T22:28:53.634Z,100112.56
2023-11-29T22:31:56.286Z,100106.47
2023-11-29T22:34:58.713Z,100093.44
2023-11-29T22:38:01.303Z,100089.56
2023-11-29T22:41:03.771Z,100096.47
2023-11-29T22:44:06.210Z,100089.25
2023-11-29T22:47:08.584Z,100093.25
2023-11-29T22:50:11.154Z,100094.38
2023-11-29T22:53:13.743Z,100090.59
2023-11-29T22:56:16.530Z,100084.56
2023-11-29T22:59:19.127Z,100078.09
2023-11-29T23:02:24.757Z,100084.81
2023-11-29T23:05:32.215Z,100079.59
2023-11-29T23:08:34.673Z,100081.25
2023-11-29T23:11:37.182Z,100086.81
2023-11-29T23:14:41.780Z,100084.00
2023-11-29T23:17:44.938Z,100086.91
2023-11-29T23:20:50.166Z,100075.56
2023-11-29T23:23:55.375Z,100072.88
2023-11-29T23:26:58.390Z,100070.66
2023-11-29T23:30:03.477Z,100079.59
2023-11-29T23:33:05.840Z,100075.44
2023-11-29T23:36:11.216Z,100070.78
2023-11-29T23:39:16.454Z,100058.75
2023-11-29T23:42:21.373Z,100079.00
2023-11-29T23:45:23.835Z,100061.09
2023-11-29T23:48:26.312Z,100065.66
2023-11-29T23:51:31.132Z,100075.78
2023-11-29T23:54:33.483Z,100067.88
2023-11-29T23:57:38.201Z,100062.75
